PWSweather.com
Personal Weather Stations
Station Observations
719732
Ponferrada, PonferradaES 24411

PonferradaPonferradaES 24411

Lat: 42.5728, Lon: -6.6425

Elevation: 1676

Station Type: PCE-FWS 20 con garita Ambient Weather SRS100LX

www.meteo.spyfly.es

High Low Average
Temperature 55.6°F13.1°C 44.8°F7.1°C 50.9°F10.5°C
Dew Point 49.6°F9.8°C 34.0°F1.1°C 39.3°F4.1°C
Winds 11.4 mph 18.3 kmh Calm Calm 5.0 mph W8.0 kmh W
Wind Gusts 21.3 mph34.3 kmh 1.6 mph2.6 kmh 11.0 mph17.7 kmh
Humidity 89% 46% 66%
Pressure 30.09 in1019.0 mb 29.98 in1015.2 mb -
Precipitation 0.07 in1.8 mm - -
Hour Temp Dew Point Humidity Winds Wind Gusts Pressure Precip Precip Rate Daily Precip Total
12:00 AM 52.7°F11.5°C 49.6°F9.8°C 89% 2.2 mph WNW3.5 kmh WNW 12.1 mph19.5 kmh 29.98 in1015.2 mb 0.02 in0.5 mm 0.00 in0.0 mm 0.07 in1.8 mm
12:05 AM 52.7°F11.5°C 49.6°F9.8°C 89% 5.4 mph WSW8.7 kmh WSW 10.7 mph17.2 kmh 29.98 in1015.2 mb 0.01 in0.3 mm 0.00 in0.0 mm 0.07 in1.8 mm
12:10 AM 52.5°F11.4°C 49.4°F9.7°C 89% 3.1 mph WSW5.0 kmh WSW 10.7 mph17.2 kmh 29.98 in1015.2 mb 0.01 in0.3 mm 0.00 in0.0 mm 0.07 in1.8 mm
12:15 AM 52.5°F11.4°C 49.4°F9.7°C 89% 3.8 mph WSW6.1 kmh WSW 10.7 mph17.2 kmh 29.98 in1015.2 mb 0.01 in0.3 mm 0.00 in0.0 mm 0.07 in1.8 mm
12:20 AM 52.5°F11.4°C 49.4°F9.7°C 89% 3.8 mph SW6.1 kmh SW 10.7 mph17.2 kmh 29.98 in1015.2 mb 0.01 in0.3 mm 0.00 in0.0 mm 0.07 in1.8 mm
12:25 AM 52.5°F11.4°C 49.1°F9.5°C 88% 5.4 mph WSW8.7 kmh WSW 10.7 mph17.2 kmh 29.98 in1015.2 mb 0.01 in0.3 mm 0.00 in0.0 mm 0.07 in1.8 mm
12:30 AM 52.5°F11.4°C 49.1°F9.5°C 88% 5.4 mph WSW8.7 kmh WSW 10.7 mph17.2 kmh 29.99 in1015.6 mb 0.01 in0.3 mm 0.00 in0.0 mm 0.07 in1.8 mm
12:35 AM 52.5°F11.4°C 49.1°F9.5°C 88% 3.1 mph WSW5.0 kmh WSW 10.7 mph17.2 kmh 29.98 in1015.2 mb 0.01 in0.3 mm 0.00 in0.0 mm 0.07 in1.8 mm
12:40 AM 52.5°F11.4°C 48.8°F9.3°C 87% 4.5 mph W7.2 kmh W 15.9 mph25.6 kmh 29.99 in1015.6 mb 0.01 in0.3 mm 0.00 in0.0 mm 0.07 in1.8 mm
12:45 AM 52.5°F11.4°C 48.8°F9.3°C 87% 4.5 mph W7.2 kmh W 15.9 mph25.6 kmh 29.99 in1015.6 mb 0.01 in0.3 mm 0.00 in0.0 mm 0.07 in1.8 mm
12:50 AM 52.3°F11.3°C 48.6°F9.2°C 87% 6.9 mph WSW11.1 kmh WSW 13.0 mph20.9 kmh 29.99 in1015.6 mb 0.00 in0.0 mm 0.00 in0.0 mm 0.07 in1.8 mm
12:55 AM 52.3°F11.3°C 48.6°F9.2°C 87% 5.4 mph WSW8.7 kmh WSW 13.6 mph21.9 kmh 29.99 in1015.6 mb 0.00 in0.0 mm 0.00 in0.0 mm 0.07 in1.8 mm
01:00 AM 52.3°F11.3°C 48.6°F9.2°C 87% 5.4 mph S8.7 kmh S 13.6 mph21.9 kmh 29.99 in1015.6 mb 0.00 in0.0 mm 0.00 in0.0 mm 0.02 in0.5 mm
01:05 AM 52.2°F11.2°C 48.4°F9.1°C 87% 8.3 mph SSW13.4 kmh SSW 15.9 mph25.6 kmh 29.99 in1015.6 mb 0.00 in0.0 mm 0.00 in0.0 mm 0.02 in0.5 mm
01:10 AM 52.0°F11.1°C 48.2°F9.0°C 87% 8.3 mph SW13.4 kmh SW 15.9 mph25.6 kmh 29.99 in1015.6 mb 0.00 in0.0 mm 0.00 in0.0 mm 0.02 in0.5 mm
01:15 AM 51.8°F11.0°C 48.1°F8.9°C 87% 8.3 mph S13.4 kmh S 15.9 mph25.6 kmh 29.99 in1015.6 mb 0.00 in0.0 mm 0.00 in0.0 mm 0.02 in0.5 mm
01:20 AM 51.8°F11.0°C 48.1°F8.9°C 87% 6.0 mph SSW9.7 kmh SSW 14.5 mph23.3 kmh 29.99 in1015.6 mb 0.00 in0.0 mm 0.00 in0.0 mm 0.02 in0.5 mm
01:25 AM 51.6°F10.9°C 48.2°F9.0°C 88% 4.5 mph SW7.2 kmh SW 13.0 mph20.9 kmh 30.00 in1015.9 mb 0.00 in0.0 mm 0.00 in0.0 mm 0.02 in0.5 mm
01:30 AM 51.6°F10.9°C 48.2°F9.0°C 88% 6.9 mph W11.1 kmh W 13.0 mph20.9 kmh 30.00 in1015.9 mb 0.00 in0.0 mm 0.00 in0.0 mm 0.02 in0.5 mm
01:35 AM 51.6°F10.9°C 48.2°F9.0°C 88% 5.4 mph WSW8.7 kmh WSW 14.5 mph23.3 kmh 30.00 in1015.9 mb 0.00 in0.0 mm 0.00 in0.0 mm 0.02 in0.5 mm
01:40 AM 51.6°F10.9°C 47.9°F8.8°C 87% 9.8 mph W15.8 kmh W 15.9 mph25.6 kmh 30.01 in1016.3 mb 0.00 in0.0 mm 0.00 in0.0 mm 0.02 in0.5 mm
01:45 AM 51.8°F11.0°C 47.1°F8.4°C 84% 9.2 mph W14.8 kmh W 15.9 mph25.6 kmh 30.00 in1015.9 mb 0.00 in0.0 mm 0.00 in0.0 mm 0.02 in0.5 mm
01:50 AM 51.8°F11.0°C 46.8°F8.2°C 83% 5.4 mph SW8.7 kmh SW 15.2 mph24.5 kmh 30.01 in1016.3 mb 0.00 in0.0 mm 0.00 in0.0 mm 0.02 in0.5 mm
01:55 AM 51.8°F11.0°C 46.8°F8.2°C 83% 5.4 mph S8.7 kmh S 13.6 mph21.9 kmh 30.00 in1015.9 mb 0.00 in0.0 mm 0.00 in0.0 mm 0.02 in0.5 mm
02:00 AM 51.6°F10.9°C 46.6°F8.1°C 83% 6.0 mph SW9.7 kmh SW 10.7 mph17.2 kmh 30.01 in1016.3 mb 0.00 in0.0 mm 0.00 in0.0 mm 0.02 in0.5 mm
02:05 AM 51.6°F10.9°C 46.6°F8.1°C 83% 6.0 mph SSW9.7 kmh SSW 9.8 mph15.8 kmh 30.00 in1015.9 mb 0.00 in0.0 mm 0.00 in0.0 mm 0.02 in0.5 mm
02:10 AM 51.4°F10.8°C 46.5°F8.1°C 83% 4.5 mph S7.2 kmh S 9.8 mph15.8 kmh 30.00 in1015.9 mb 0.00 in0.0 mm 0.00 in0.0 mm 0.02 in0.5 mm
02:15 AM 51.4°F10.8°C 46.1°F7.8°C 82% 7.6 mph S12.2 kmh S 13.6 mph21.9 kmh 30.00 in1015.9 mb 0.00 in0.0 mm 0.00 in0.0 mm 0.02 in0.5 mm
02:20 AM 51.4°F10.8°C 46.1°F7.8°C 82% 4.5 mph S7.2 kmh S 13.6 mph21.9 kmh 30.00 in1015.9 mb 0.00 in0.0 mm 0.00 in0.0 mm 0.02 in0.5 mm
02:25 AM 51.3°F10.7°C 45.6°F7.6°C 81% 5.4 mph SW8.7 kmh SW 11.4 mph18.3 kmh 30.00 in1015.9 mb 0.00 in0.0 mm 0.00 in0.0 mm 0.02 in0.5 mm
02:30 AM 51.3°F10.7°C 45.6°F7.6°C 81% 3.8 mph SW6.1 kmh SW 11.4 mph18.3 kmh 30.00 in1015.9 mb 0.00 in0.0 mm 0.00 in0.0 mm 0.02 in0.5 mm
02:35 AM 51.3°F10.7°C 45.3°F7.4°C 80% 5.4 mph SW8.7 kmh SW 11.4 mph18.3 kmh 30.00 in1015.9 mb 0.00 in0.0 mm 0.00 in0.0 mm 0.02 in0.5 mm
02:40 AM 51.1°F10.6°C 45.1°F7.3°C 80% 3.1 mph WSW5.0 kmh WSW 9.8 mph15.8 kmh 30.00 in1015.9 mb 0.00 in0.0 mm 0.00 in0.0 mm 0.02 in0.5 mm
02:45 AM 51.1°F10.6°C 45.1°F7.3°C 80% 6.0 mph WSW9.7 kmh WSW 9.8 mph15.8 kmh 30.00 in1015.9 mb 0.00 in0.0 mm 0.00 in0.0 mm 0.02 in0.5 mm
02:50 AM 51.1°F10.6°C 45.1°F7.3°C 80% 6.0 mph WSW9.7 kmh WSW 10.7 mph17.2 kmh 30.00 in1015.9 mb 0.00 in0.0 mm 0.00 in0.0 mm 0.02 in0.5 mm
02:55 AM 51.1°F10.6°C 45.1°F7.3°C 80% 4.5 mph WSW7.2 kmh WSW 10.7 mph17.2 kmh 30.01 in1016.3 mb 0.00 in0.0 mm 0.00 in0.0 mm 0.02 in0.5 mm
03:00 AM 51.1°F10.6°C 45.1°F7.3°C 80% 4.5 mph WSW7.2 kmh WSW 10.7 mph17.2 kmh 30.00 in1015.9 mb 0.00 in0.0 mm 0.00 in0.0 mm 0.02 in0.5 mm
03:05 AM 51.1°F10.6°C 45.1°F7.3°C 80% 3.1 mph SW5.0 kmh SW 10.7 mph17.2 kmh 30.01 in1016.3 mb 0.00 in0.0 mm 0.00 in0.0 mm 0.02 in0.5 mm
03:10 AM 51.1°F10.6°C 45.1°F7.3°C 80% 6.0 mph SSW9.7 kmh SSW 9.8 mph15.8 kmh 30.01 in1016.3 mb 0.00 in0.0 mm 0.00 in0.0 mm 0.02 in0.5 mm
03:15 AM 51.1°F10.6°C 45.1°F7.3°C 80% 3.1 mph SW5.0 kmh SW 10.7 mph17.2 kmh 30.01 in1016.3 mb 0.00 in0.0 mm 0.00 in0.0 mm 0.02 in0.5 mm
03:20 AM 51.1°F10.6°C 45.1°F7.3°C 80% 3.8 mph SW6.1 kmh SW 10.7 mph17.2 kmh 30.01 in1016.3 mb 0.00 in0.0 mm 0.00 in0.0 mm 0.02 in0.5 mm
03:25 AM 51.1°F10.6°C 45.5°F7.5°C 81% 4.5 mph SW7.2 kmh SW 8.3 mph13.4 kmh 30.01 in1016.3 mb 0.00 in0.0 mm 0.00 in0.0 mm 0.02 in0.5 mm
03:30 AM 51.1°F10.6°C 45.5°F7.5°C 81% 5.4 mph SW8.7 kmh SW 9.8 mph15.8 kmh 30.01 in1016.3 mb 0.00 in0.0 mm 0.00 in0.0 mm 0.02 in0.5 mm
03:35 AM 50.9°F10.5°C 45.3°F7.4°C 81% 3.1 mph WSW5.0 kmh WSW 9.8 mph15.8 kmh 30.01 in1016.3 mb 0.00 in0.0 mm 0.00 in0.0 mm 0.02 in0.5 mm
03:40 AM 50.9°F10.5°C 45.3°F7.4°C 81% 7.6 mph SSW12.2 kmh SSW 11.4 mph18.3 kmh 30.00 in1015.9 mb 0.00 in0.0 mm 0.00 in0.0 mm 0.02 in0.5 mm
03:50 AM 50.7°F10.4°C 45.1°F7.3°C 81% 3.1 mph S5.0 kmh S 11.4 mph18.3 kmh 30.01 in1016.3 mb 0.00 in0.0 mm 0.00 in0.0 mm 0.02 in0.5 mm
03:55 AM 50.5°F10.3°C 44.9°F7.2°C 81% 4.5 mph SW7.2 kmh SW 10.7 mph17.2 kmh 30.01 in1016.3 mb 0.00 in0.0 mm 0.00 in0.0 mm 0.02 in0.5 mm
04:00 AM 50.5°F10.3°C 44.9°F7.2°C 81% 3.8 mph SW6.1 kmh SW 10.7 mph17.2 kmh 30.00 in1015.9 mb 0.00 in0.0 mm 0.00 in0.0 mm 0.02 in0.5 mm
04:05 AM 50.4°F10.2°C 45.1°F7.3°C 82% 3.1 mph WSW5.0 kmh WSW 8.3 mph13.4 kmh 30.00 in1015.9 mb 0.00 in0.0 mm 0.00 in0.0 mm 0.02 in0.5 mm
04:10 AM 50.2°F10.1°C 44.9°F7.2°C 82% 3.8 mph WSW6.1 kmh WSW 6.9 mph11.1 kmh 30.00 in1015.9 mb 0.00 in0.0 mm 0.00 in0.0 mm 0.02 in0.5 mm
04:15 AM 50.2°F10.1°C 44.9°F7.2°C 82% 4.5 mph SW7.2 kmh SW 8.3 mph13.4 kmh 30.00 in1015.9 mb 0.00 in0.0 mm 0.00 in0.0 mm 0.02 in0.5 mm
04:20 AM 50.0°F10.0°C 44.4°F6.9°C 81% 3.1 mph SW5.0 kmh SW 8.3 mph13.4 kmh 30.00 in1015.9 mb 0.00 in0.0 mm 0.00 in0.0 mm 0.02 in0.5 mm
04:25 AM 50.0°F10.0°C 44.4°F6.9°C 81% 5.4 mph W8.7 kmh W 8.3 mph13.4 kmh 30.00 in1015.9 mb 0.00 in0.0 mm 0.00 in0.0 mm 0.02 in0.5 mm
04:30 AM 49.8°F9.9°C 44.2°F6.8°C 81% 4.5 mph W7.2 kmh W 7.6 mph12.2 kmh 30.00 in1015.9 mb 0.00 in0.0 mm 0.00 in0.0 mm 0.02 in0.5 mm
04:35 AM 49.8°F9.9°C 44.2°F6.8°C 81% 6.9 mph WSW11.1 kmh WSW 9.8 mph15.8 kmh 30.00 in1015.9 mb 0.00 in0.0 mm 0.00 in0.0 mm 0.02 in0.5 mm
04:40 AM 49.6°F9.8°C 44.4°F6.9°C 82% 6.0 mph WSW9.7 kmh WSW 9.8 mph15.8 kmh 30.00 in1015.9 mb 0.00 in0.0 mm 0.00 in0.0 mm 0.02 in0.5 mm
04:45 AM 49.6°F9.8°C 44.4°F6.9°C 82% 5.4 mph SW8.7 kmh SW 10.7 mph17.2 kmh 29.99 in1015.6 mb 0.00 in0.0 mm 0.00 in0.0 mm 0.02 in0.5 mm
04:50 AM 49.6°F9.8°C 44.4°F6.9°C 82% 6.0 mph SW9.7 kmh SW 12.1 mph19.5 kmh 30.00 in1015.9 mb 0.00 in0.0 mm 0.00 in0.0 mm 0.02 in0.5 mm
04:55 AM 49.5°F9.7°C 44.2°F6.8°C 82% 6.9 mph SW11.1 kmh SW 12.1 mph19.5 kmh 30.00 in1015.9 mb 0.00 in0.0 mm 0.00 in0.0 mm 0.02 in0.5 mm
05:00 AM 49.5°F9.7°C 43.9°F6.6°C 81% 8.3 mph SW13.4 kmh SW 12.1 mph19.5 kmh 30.00 in1015.9 mb 0.00 in0.0 mm 0.00 in0.0 mm 0.02 in0.5 mm
05:05 AM 49.5°F9.7°C 43.9°F6.6°C 81% 8.3 mph W13.4 kmh W 12.1 mph19.5 kmh 30.00 in1015.9 mb 0.00 in0.0 mm 0.00 in0.0 mm 0.02 in0.5 mm
05:10 AM 49.5°F9.7°C 43.6°F6.4°C 80% 8.3 mph WNW13.4 kmh WNW 13.6 mph21.9 kmh 29.99 in1015.6 mb 0.00 in0.0 mm 0.00 in0.0 mm 0.02 in0.5 mm
05:15 AM 49.5°F9.7°C 43.6°F6.4°C 80% 7.6 mph WNW12.2 kmh WNW 13.6 mph21.9 kmh 30.00 in1015.9 mb 0.00 in0.0 mm 0.00 in0.0 mm 0.02 in0.5 mm
05:20 AM 49.3°F9.6°C 43.1°F6.2°C 79% 6.9 mph W11.1 kmh W 13.6 mph21.9 kmh 29.99 in1015.6 mb 0.00 in0.0 mm 0.00 in0.0 mm 0.02 in0.5 mm
05:25 AM 49.3°F9.6°C 43.1°F6.2°C 79% 6.9 mph W11.1 kmh W 14.5 mph23.3 kmh 29.99 in1015.6 mb 0.00 in0.0 mm 0.00 in0.0 mm 0.02 in0.5 mm
05:30 AM 49.3°F9.6°C 43.1°F6.2°C 79% 9.2 mph W14.8 kmh W 14.5 mph23.3 kmh 30.00 in1015.9 mb 0.00 in0.0 mm 0.00 in0.0 mm 0.02 in0.5 mm
05:35 AM 49.1°F9.5°C 42.9°F6.1°C 79% 7.6 mph W12.2 kmh W 16.8 mph27.0 kmh 30.00 in1015.9 mb 0.00 in0.0 mm 0.00 in0.0 mm 0.02 in0.5 mm
05:40 AM 49.1°F9.5°C 42.9°F6.1°C 79% 10.7 mph W17.2 kmh W 16.8 mph27.0 kmh 30.00 in1015.9 mb 0.00 in0.0 mm 0.00 in0.0 mm 0.02 in0.5 mm
05:45 AM 49.1°F9.5°C 42.5°F5.8°C 78% 11.4 mph W18.3 kmh W 21.3 mph34.3 kmh 29.99 in1015.6 mb 0.00 in0.0 mm 0.00 in0.0 mm 0.02 in0.5 mm
05:50 AM 49.1°F9.5°C 42.2°F5.7°C 77% 9.2 mph W14.8 kmh W 21.3 mph34.3 kmh 29.99 in1015.6 mb 0.00 in0.0 mm 0.00 in0.0 mm 0.02 in0.5 mm
05:55 AM 48.9°F9.4°C 41.7°F5.4°C 76% 11.4 mph SW18.3 kmh SW 21.3 mph34.3 kmh 29.98 in1015.2 mb 0.00 in0.0 mm 0.00 in0.0 mm 0.02 in0.5 mm
06:00 AM 48.7°F9.3°C 41.5°F5.3°C 76% 9.2 mph SW14.8 kmh SW 16.8 mph27.0 kmh 30.00 in1015.9 mb 0.00 in0.0 mm 0.00 in0.0 mm 0.02 in0.5 mm
06:05 AM 48.7°F9.3°C 41.5°F5.3°C 76% 9.2 mph WSW14.8 kmh WSW 15.2 mph24.5 kmh 29.99 in1015.6 mb 0.00 in0.0 mm 0.00 in0.0 mm 0.02 in0.5 mm
06:10 AM 48.7°F9.3°C 40.8°F4.9°C 74% 11.4 mph SW18.3 kmh SW 15.9 mph25.6 kmh 30.00 in1015.9 mb 0.00 in0.0 mm 0.00 in0.0 mm 0.02 in0.5 mm
06:15 AM 48.6°F9.2°C 40.7°F4.8°C 74% 9.2 mph WSW14.8 kmh WSW 19.7 mph31.7 kmh 30.00 in1015.9 mb 0.00 in0.0 mm 0.00 in0.0 mm 0.02 in0.5 mm
06:20 AM 48.6°F9.2°C 40.7°F4.8°C 74% 9.2 mph W14.8 kmh W 19.7 mph31.7 kmh 30.01 in1016.3 mb 0.00 in0.0 mm 0.00 in0.0 mm 0.02 in0.5 mm
06:25 AM 48.4°F9.1°C 40.5°F4.7°C 74% 7.6 mph W12.2 kmh W 16.8 mph27.0 kmh 30.01 in1016.3 mb 0.00 in0.0 mm 0.00 in0.0 mm 0.02 in0.5 mm
06:30 AM 48.4°F9.1°C 40.5°F4.7°C 74% 8.3 mph WSW13.4 kmh WSW 16.8 mph27.0 kmh 30.02 in1016.6 mb 0.00 in0.0 mm 0.00 in0.0 mm 0.02 in0.5 mm
06:35 AM 48.4°F9.1°C 40.1°F4.5°C 73% 7.6 mph W12.2 kmh W 19.0 mph30.6 kmh 30.02 in1016.6 mb 0.00 in0.0 mm 0.00 in0.0 mm 0.02 in0.5 mm
06:40 AM 48.4°F9.1°C 39.8°F4.3°C 72% 4.5 mph W7.2 kmh W 19.0 mph30.6 kmh 30.03 in1016.9 mb 0.00 in0.0 mm 0.00 in0.0 mm 0.02 in0.5 mm
06:45 AM 48.2°F9.0°C 39.2°F4.0°C 71% 10.7 mph W17.2 kmh W 16.8 mph27.0 kmh 30.03 in1016.9 mb 0.00 in0.0 mm 0.00 in0.0 mm 0.02 in0.5 mm
06:50 AM 48.0°F8.9°C 38.3°F3.5°C 69% 6.9 mph W11.1 kmh W 15.9 mph25.6 kmh 30.03 in1016.9 mb 0.00 in0.0 mm 0.00 in0.0 mm 0.02 in0.5 mm
06:55 AM 48.0°F8.9°C 37.2°F2.9°C 66% 4.5 mph W7.2 kmh W 19.0 mph30.6 kmh 30.04 in1017.3 mb 0.00 in0.0 mm 0.00 in0.0 mm 0.02 in0.5 mm
07:00 AM 48.0°F8.9°C 36.8°F2.7°C 65% 5.4 mph WNW8.7 kmh WNW 19.0 mph30.6 kmh 30.04 in1017.3 mb 0.00 in0.0 mm 0.00 in0.0 mm 0.02 in0.5 mm
07:05 AM 47.8°F8.8°C 36.7°F2.6°C 65% 3.1 mph WSW5.0 kmh WSW 11.4 mph18.3 kmh 30.04 in1017.3 mb 0.00 in0.0 mm 0.00 in0.0 mm 0.02 in0.5 mm
07:10 AM 47.7°F8.7°C 36.9°F2.7°C 66% 1.6 mph SW2.6 kmh SW 11.4 mph18.3 kmh 30.04 in1017.3 mb 0.00 in0.0 mm 0.00 in0.0 mm 0.02 in0.5 mm
07:15 AM 47.3°F8.5°C 36.9°F2.7°C 67% 2.2 mph SW3.5 kmh SW 11.4 mph18.3 kmh 30.04 in1017.3 mb 0.00 in0.0 mm 0.00 in0.0 mm 0.02 in0.5 mm
07:20 AM 46.9°F8.3°C 36.6°F2.6°C 67% 3.8 mph WSW6.1 kmh WSW 11.4 mph18.3 kmh 30.04 in1017.3 mb 0.00 in0.0 mm 0.00 in0.0 mm 0.02 in0.5 mm
07:25 AM 46.9°F8.3°C 36.6°F2.6°C 67% 6.9 mph W11.1 kmh W 12.1 mph19.5 kmh 30.05 in1017.6 mb 0.00 in0.0 mm 0.00 in0.0 mm 0.02 in0.5 mm
07:30 AM 46.9°F8.3°C 36.6°F2.6°C 67% 6.0 mph W9.7 kmh W 12.1 mph19.5 kmh 30.05 in1017.6 mb 0.00 in0.0 mm 0.00 in0.0 mm 0.02 in0.5 mm
07:35 AM 46.9°F8.3°C 36.2°F2.3°C 66% 6.0 mph WSW9.7 kmh WSW 12.1 mph19.5 kmh 30.05 in1017.6 mb 0.00 in0.0 mm 0.00 in0.0 mm 0.02 in0.5 mm
07:40 AM 46.9°F8.3°C 36.2°F2.3°C 66% 7.6 mph WSW12.2 kmh WSW 12.1 mph19.5 kmh 30.05 in1017.6 mb 0.00 in0.0 mm 0.00 in0.0 mm 0.02 in0.5 mm
07:45 AM 46.9°F8.3°C 36.2°F2.3°C 66% 7.6 mph W12.2 kmh W 11.4 mph18.3 kmh 30.05 in1017.6 mb 0.00 in0.0 mm 0.00 in0.0 mm 0.02 in0.5 mm
07:50 AM 46.8°F8.2°C 36.0°F2.2°C 66% 7.6 mph WSW12.2 kmh WSW 11.4 mph18.3 kmh 30.05 in1017.6 mb 0.00 in0.0 mm 0.00 in0.0 mm 0.02 in0.5 mm
07:55 AM 46.6°F8.1°C 36.2°F2.3°C 67% 9.2 mph WSW14.8 kmh WSW 11.4 mph18.3 kmh 30.05 in1017.6 mb 0.00 in0.0 mm 0.00 in0.0 mm 0.02 in0.5 mm
08:00 AM 46.6°F8.1°C 36.2°F2.3°C 67% 3.8 mph W6.1 kmh W 11.4 mph18.3 kmh 30.05 in1017.6 mb 0.00 in0.0 mm 0.00 in0.0 mm 0.02 in0.5 mm
08:05 AM 46.4°F8.0°C 36.0°F2.2°C 67% 4.5 mph W7.2 kmh W 11.4 mph18.3 kmh 30.06 in1017.9 mb 0.00 in0.0 mm 0.00 in0.0 mm 0.02 in0.5 mm
08:10 AM 45.9°F7.7°C 35.9°F2.2°C 68% 5.4 mph WNW8.7 kmh WNW 8.3 mph13.4 kmh 30.06 in1017.9 mb 0.00 in0.0 mm 0.00 in0.0 mm 0.02 in0.5 mm
08:15 AM 45.5°F7.5°C 35.9°F2.2°C 69% 3.8 mph WNW6.1 kmh WNW 8.3 mph13.4 kmh 30.06 in1017.9 mb 0.00 in0.0 mm 0.00 in0.0 mm 0.02 in0.5 mm
08:20 AM 45.0°F7.2°C 36.1°F2.3°C 71% 2.2 mph W3.5 kmh W 7.6 mph12.2 kmh 30.06 in1017.9 mb 0.00 in0.0 mm 0.00 in0.0 mm 0.02 in0.5 mm
08:25 AM 44.8°F7.1°C 36.0°F2.2°C 71% 4.5 mph W7.2 kmh W 6.0 mph9.7 kmh 30.07 in1018.3 mb 0.00 in0.0 mm 0.00 in0.0 mm 0.02 in0.5 mm
08:30 AM 45.0°F7.2°C 36.1°F2.3°C 71% 3.8 mph W6.1 kmh W 6.0 mph9.7 kmh 30.06 in1017.9 mb 0.00 in0.0 mm 0.00 in0.0 mm 0.02 in0.5 mm
08:35 AM 45.0°F7.2°C 36.5°F2.5°C 72% 3.8 mph W6.1 kmh W 6.0 mph9.7 kmh 30.06 in1017.9 mb 0.00 in0.0 mm 0.00 in0.0 mm 0.02 in0.5 mm
08:40 AM 45.0°F7.2°C 36.5°F2.5°C 72% 1.6 mph W2.6 kmh W 6.0 mph9.7 kmh 30.06 in1017.9 mb 0.00 in0.0 mm 0.00 in0.0 mm 0.02 in0.5 mm
08:45 AM 45.0°F7.2°C 36.5°F2.5°C 72% 3.1 mph WSW5.0 kmh WSW 7.6 mph12.2 kmh 30.06 in1017.9 mb 0.00 in0.0 mm 0.00 in0.0 mm 0.02 in0.5 mm
08:50 AM 45.1°F7.3°C 36.7°F2.6°C 72% 5.4 mph WSW8.7 kmh WSW 8.3 mph13.4 kmh 30.07 in1018.3 mb 0.00 in0.0 mm 0.00 in0.0 mm 0.02 in0.5 mm
08:55 AM 45.3°F7.4°C 37.2°F2.9°C 73% 4.5 mph W7.2 kmh W 9.2 mph14.8 kmh 30.07 in1018.3 mb 0.00 in0.0 mm 0.00 in0.0 mm 0.02 in0.5 mm
09:00 AM 45.5°F7.5°C 37.7°F3.2°C 74% 3.8 mph NW6.1 kmh NW 9.8 mph15.8 kmh 30.07 in1018.3 mb 0.00 in0.0 mm 0.00 in0.0 mm 0.02 in0.5 mm
09:05 AM 46.0°F7.8°C 38.2°F3.4°C 74% 5.4 mph W8.7 kmh W 9.8 mph15.8 kmh 30.07 in1018.3 mb 0.00 in0.0 mm 0.00 in0.0 mm 0.02 in0.5 mm
09:10 AM 46.4°F8.0°C 38.9°F3.8°C 75% 6.0 mph WSW9.7 kmh WSW 10.7 mph17.2 kmh 30.07 in1018.3 mb 0.00 in0.0 mm 0.00 in0.0 mm 0.02 in0.5 mm
09:15 AM 46.9°F8.3°C 39.4°F4.1°C 75% 6.0 mph W9.7 kmh W 13.6 mph21.9 kmh 30.07 in1018.3 mb 0.00 in0.0 mm 0.00 in0.0 mm 0.02 in0.5 mm
09:20 AM 47.1°F8.4°C 39.6°F4.2°C 75% 7.6 mph W12.2 kmh W 13.6 mph21.9 kmh 30.07 in1018.3 mb 0.00 in0.0 mm 0.00 in0.0 mm 0.02 in0.5 mm
09:25 AM 47.3°F8.5°C 39.8°F4.3°C 75% 6.0 mph WSW9.7 kmh WSW 13.0 mph20.9 kmh 30.07 in1018.3 mb 0.00 in0.0 mm 0.00 in0.0 mm 0.02 in0.5 mm
09:30 AM 47.5°F8.6°C 40.0°F4.4°C 75% 5.4 mph W8.7 kmh W 13.0 mph20.9 kmh 30.07 in1018.3 mb 0.00 in0.0 mm 0.00 in0.0 mm 0.02 in0.5 mm
09:35 AM 47.7°F8.7°C 40.1°F4.5°C 75% 5.4 mph W8.7 kmh W 11.4 mph18.3 kmh 30.07 in1018.3 mb 0.00 in0.0 mm 0.00 in0.0 mm 0.02 in0.5 mm
09:40 AM 47.8°F8.8°C 40.0°F4.4°C 74% 5.4 mph WSW8.7 kmh WSW 11.4 mph18.3 kmh 30.08 in1018.6 mb 0.00 in0.0 mm 0.00 in0.0 mm 0.02 in0.5 mm
09:45 AM 48.2°F9.0°C 39.6°F4.2°C 72% 7.6 mph WSW12.2 kmh WSW 10.7 mph17.2 kmh 30.08 in1018.6 mb 0.00 in0.0 mm 0.00 in0.0 mm 0.02 in0.5 mm
09:50 AM 48.6°F9.2°C 40.0°F4.4°C 72% 3.1 mph W5.0 kmh W 12.1 mph19.5 kmh 30.08 in1018.6 mb 0.00 in0.0 mm 0.00 in0.0 mm 0.02 in0.5 mm
09:55 AM 48.7°F9.3°C 39.8°F4.3°C 71% 8.3 mph WNW13.4 kmh WNW 13.6 mph21.9 kmh 30.08 in1018.6 mb 0.00 in0.0 mm 0.00 in0.0 mm 0.02 in0.5 mm
10:00 AM 48.9°F9.4°C 39.6°F4.2°C 70% 8.3 mph W13.4 kmh W 13.6 mph21.9 kmh 30.08 in1018.6 mb 0.00 in0.0 mm 0.00 in0.0 mm 0.02 in0.5 mm
10:05 AM 48.9°F9.4°C 39.6°F4.2°C 70% 6.9 mph W11.1 kmh W 12.1 mph19.5 kmh 30.08 in1018.6 mb 0.00 in0.0 mm 0.00 in0.0 mm 0.02 in0.5 mm
10:10 AM 49.3°F9.6°C 39.6°F4.2°C 69% 7.6 mph SW12.2 kmh SW 12.1 mph19.5 kmh 30.08 in1018.6 mb 0.00 in0.0 mm 0.00 in0.0 mm 0.02 in0.5 mm
10:15 AM 49.8°F9.9°C 40.1°F4.5°C 69% 8.3 mph SW13.4 kmh SW 12.1 mph19.5 kmh 30.09 in1019.0 mb 0.00 in0.0 mm 0.00 in0.0 mm 0.02 in0.5 mm
10:20 AM 50.0°F10.0°C 39.5°F4.2°C 67% 7.6 mph SW12.2 kmh SW 14.5 mph23.3 kmh 30.08 in1018.6 mb 0.00 in0.0 mm 0.00 in0.0 mm 0.02 in0.5 mm
10:25 AM 50.2°F10.1°C 39.3°F4.1°C 66% 6.0 mph WSW9.7 kmh WSW 15.2 mph24.5 kmh 30.08 in1018.6 mb 0.00 in0.0 mm 0.00 in0.0 mm 0.02 in0.5 mm
10:30 AM 50.5°F10.3°C 39.2°F4.0°C 65% 8.3 mph W13.4 kmh W 15.2 mph24.5 kmh 30.08 in1018.6 mb 0.00 in0.0 mm 0.00 in0.0 mm 0.02 in0.5 mm
10:35 AM 50.4°F10.2°C 39.1°F3.9°C 65% 7.6 mph W12.2 kmh W 15.2 mph24.5 kmh 30.08 in1018.6 mb 0.00 in0.0 mm 0.00 in0.0 mm 0.02 in0.5 mm
10:40 AM 50.4°F10.2°C 38.7°F3.7°C 64% 6.9 mph WSW11.1 kmh WSW 15.9 mph25.6 kmh 30.08 in1018.6 mb 0.00 in0.0 mm 0.00 in0.0 mm 0.02 in0.5 mm
10:45 AM 50.4°F10.2°C 38.7°F3.7°C 64% 6.9 mph WSW11.1 kmh WSW 15.9 mph25.6 kmh 30.09 in1019.0 mb 0.00 in0.0 mm 0.00 in0.0 mm 0.02 in0.5 mm
10:50 AM 50.2°F10.1°C 38.5°F3.6°C 64% 10.7 mph W17.2 kmh W 15.2 mph24.5 kmh 30.08 in1018.6 mb 0.00 in0.0 mm 0.00 in0.0 mm 0.02 in0.5 mm
10:55 AM 50.0°F10.0°C 38.3°F3.5°C 64% 4.5 mph W7.2 kmh W 15.2 mph24.5 kmh 30.08 in1018.6 mb 0.00 in0.0 mm 0.00 in0.0 mm 0.02 in0.5 mm
11:00 AM 50.5°F10.3°C 38.8°F3.8°C 64% 6.0 mph WSW9.7 kmh WSW 15.2 mph24.5 kmh 30.08 in1018.6 mb 0.00 in0.0 mm 0.00 in0.0 mm 0.02 in0.5 mm
11:05 AM 51.3°F10.7°C 39.5°F4.2°C 64% 8.3 mph SW13.4 kmh SW 15.2 mph24.5 kmh 30.08 in1018.6 mb 0.00 in0.0 mm 0.00 in0.0 mm 0.02 in0.5 mm
11:10 AM 51.6°F10.9°C 39.4°F4.1°C 63% 6.0 mph SW9.7 kmh SW 15.2 mph24.5 kmh 30.08 in1018.6 mb 0.00 in0.0 mm 0.00 in0.0 mm 0.02 in0.5 mm
11:15 AM 52.0°F11.1°C 38.5°F3.6°C 60% 7.6 mph WSW12.2 kmh WSW 14.5 mph23.3 kmh 30.08 in1018.6 mb 0.00 in0.0 mm 0.00 in0.0 mm 0.02 in0.5 mm
11:20 AM 52.2°F11.2°C 38.3°F3.5°C 59% 6.0 mph W9.7 kmh W 13.6 mph21.9 kmh 30.08 in1018.6 mb 0.00 in0.0 mm 0.00 in0.0 mm 0.02 in0.5 mm
11:25 AM 52.3°F11.3°C 38.0°F3.3°C 58% 8.3 mph WSW13.4 kmh WSW 15.2 mph24.5 kmh 30.08 in1018.6 mb 0.00 in0.0 mm 0.00 in0.0 mm 0.02 in0.5 mm
11:30 AM 52.0°F11.1°C 36.8°F2.7°C 56% 6.9 mph W11.1 kmh W 15.2 mph24.5 kmh 30.08 in1018.6 mb 0.00 in0.0 mm 0.00 in0.0 mm 0.02 in0.5 mm
11:35 AM 51.4°F10.8°C 37.2°F2.9°C 58% 6.0 mph WSW9.7 kmh WSW 13.0 mph20.9 kmh 30.08 in1018.6 mb 0.00 in0.0 mm 0.00 in0.0 mm 0.02 in0.5 mm
11:40 AM 51.3°F10.7°C 36.6°F2.6°C 57% 6.0 mph WSW9.7 kmh WSW 13.6 mph21.9 kmh 30.07 in1018.3 mb 0.00 in0.0 mm 0.00 in0.0 mm 0.02 in0.5 mm
11:45 AM 51.4°F10.8°C 37.6°F3.1°C 59% 7.6 mph WNW12.2 kmh WNW 13.6 mph21.9 kmh 30.08 in1018.6 mb 0.00 in0.0 mm 0.00 in0.0 mm 0.02 in0.5 mm
11:50 AM 51.8°F11.0°C 36.6°F2.6°C 56% 6.9 mph WNW11.1 kmh WNW 15.9 mph25.6 kmh 30.08 in1018.6 mb 0.00 in0.0 mm 0.00 in0.0 mm 0.02 in0.5 mm
11:55 AM 52.3°F11.3°C 37.1°F2.8°C 56% 6.9 mph WNW11.1 kmh WNW 15.9 mph25.6 kmh 30.07 in1018.3 mb 0.00 in0.0 mm 0.00 in0.0 mm 0.02 in0.5 mm
12:00 PM 52.7°F11.5°C 37.0°F2.8°C 55% 5.4 mph NW8.7 kmh NW 12.1 mph19.5 kmh 30.08 in1018.6 mb 0.00 in0.0 mm 0.00 in0.0 mm 0.02 in0.5 mm
12:05 PM 52.7°F11.5°C 37.0°F2.8°C 55% 7.6 mph NW12.2 kmh NW 12.1 mph19.5 kmh 30.08 in1018.6 mb 0.00 in0.0 mm 0.00 in0.0 mm 0.02 in0.5 mm
12:10 PM 52.9°F11.6°C 36.7°F2.6°C 54% 6.9 mph WNW11.1 kmh WNW 13.6 mph21.9 kmh 30.07 in1018.3 mb 0.00 in0.0 mm 0.00 in0.0 mm 0.02 in0.5 mm
12:15 PM 53.2°F11.8°C 36.6°F2.6°C 53% 7.6 mph W12.2 kmh W 14.5 mph23.3 kmh 30.07 in1018.3 mb 0.00 in0.0 mm 0.00 in0.0 mm 0.02 in0.5 mm
12:20 PM 53.2°F11.8°C 36.1°F2.3°C 52% 9.8 mph W15.8 kmh W 15.2 mph24.5 kmh 30.07 in1018.3 mb 0.00 in0.0 mm 0.00 in0.0 mm 0.02 in0.5 mm
12:25 PM 53.2°F11.8°C 36.1°F2.3°C 52% 3.8 mph WNW6.1 kmh WNW 15.2 mph24.5 kmh 30.07 in1018.3 mb 0.00 in0.0 mm 0.00 in0.0 mm 0.02 in0.5 mm
12:30 PM 53.8°F12.1°C 36.1°F2.3°C 51% 7.6 mph W12.2 kmh W 15.2 mph24.5 kmh 30.07 in1018.3 mb 0.00 in0.0 mm 0.00 in0.0 mm 0.02 in0.5 mm
12:35 PM 53.6°F12.0°C 34.9°F1.6°C 49% 9.2 mph WSW14.8 kmh WSW 14.5 mph23.3 kmh 30.07 in1018.3 mb 0.00 in0.0 mm 0.00 in0.0 mm 0.02 in0.5 mm
12:40 PM 53.6°F12.0°C 35.9°F2.2°C 51% 7.6 mph WSW12.2 kmh WSW 14.5 mph23.3 kmh 30.08 in1018.6 mb 0.00 in0.0 mm 0.00 in0.0 mm 0.02 in0.5 mm
12:45 PM 53.4°F11.9°C 36.2°F2.3°C 52% 5.4 mph W8.7 kmh W 15.2 mph24.5 kmh 30.08 in1018.6 mb 0.00 in0.0 mm 0.00 in0.0 mm 0.02 in0.5 mm
12:50 PM 53.6°F12.0°C 35.9°F2.2°C 51% 8.3 mph W13.4 kmh W 15.2 mph24.5 kmh 30.07 in1018.3 mb 0.00 in0.0 mm 0.00 in0.0 mm 0.02 in0.5 mm
12:55 PM 54.0°F12.2°C 36.3°F2.4°C 51% 6.9 mph W11.1 kmh W 13.6 mph21.9 kmh 30.08 in1018.6 mb 0.00 in0.0 mm 0.00 in0.0 mm 0.02 in0.5 mm
01:00 PM 54.7°F12.6°C 36.9°F2.7°C 51% 6.9 mph W11.1 kmh W 15.2 mph24.5 kmh 30.08 in1018.6 mb 0.00 in0.0 mm 0.00 in0.0 mm 0.02 in0.5 mm
01:05 PM 55.0°F12.8°C 37.3°F2.9°C 51% 5.4 mph WSW8.7 kmh WSW 15.2 mph24.5 kmh 30.07 in1018.3 mb 0.00 in0.0 mm 0.00 in0.0 mm 0.02 in0.5 mm
01:10 PM 55.2°F12.9°C 36.4°F2.4°C 49% 10.7 mph W17.2 kmh W 15.2 mph24.5 kmh 30.08 in1018.6 mb 0.00 in0.0 mm 0.00 in0.0 mm 0.02 in0.5 mm
01:15 PM 54.9°F12.7°C 35.6°F2.0°C 48% 6.9 mph W11.1 kmh W 15.2 mph24.5 kmh 30.08 in1018.6 mb 0.00 in0.0 mm 0.00 in0.0 mm 0.02 in0.5 mm
01:20 PM 54.9°F12.7°C 36.1°F2.3°C 49% 7.6 mph W12.2 kmh W 13.6 mph21.9 kmh 30.08 in1018.6 mb 0.00 in0.0 mm 0.00 in0.0 mm 0.02 in0.5 mm
01:25 PM 54.9°F12.7°C 35.0°F1.7°C 47% 8.3 mph WNW13.4 kmh WNW 16.8 mph27.0 kmh 30.08 in1018.6 mb 0.00 in0.0 mm 0.00 in0.0 mm 0.02 in0.5 mm
01:30 PM 54.9°F12.7°C 35.6°F2.0°C 48% 6.9 mph WNW11.1 kmh WNW 16.8 mph27.0 kmh 30.07 in1018.3 mb 0.00 in0.0 mm 0.00 in0.0 mm 0.02 in0.5 mm
01:35 PM 55.2°F12.9°C 35.4°F1.9°C 47% 6.9 mph W11.1 kmh W 14.5 mph23.3 kmh 30.08 in1018.6 mb 0.00 in0.0 mm 0.00 in0.0 mm 0.02 in0.5 mm
01:40 PM 55.4°F13.0°C 35.5°F1.9°C 47% 9.2 mph W14.8 kmh W 14.5 mph23.3 kmh 30.07 in1018.3 mb 0.00 in0.0 mm 0.00 in0.0 mm 0.02 in0.5 mm
01:45 PM 55.6°F13.1°C 35.7°F2.1°C 47% 2.2 mph W3.5 kmh W 16.8 mph27.0 kmh 30.07 in1018.3 mb 0.00 in0.0 mm 0.00 in0.0 mm 0.02 in0.5 mm
01:50 PM 55.6°F13.1°C 35.7°F2.1°C 47% 6.9 mph W11.1 kmh W 16.8 mph27.0 kmh 30.07 in1018.3 mb 0.00 in0.0 mm 0.00 in0.0 mm 0.02 in0.5 mm
01:55 PM 55.2°F12.9°C 35.9°F2.2°C 48% 8.3 mph W13.4 kmh W 15.9 mph25.6 kmh 30.07 in1018.3 mb 0.00 in0.0 mm 0.00 in0.0 mm 0.02 in0.5 mm
02:00 PM 55.0°F12.8°C 35.2°F1.8°C 47% 4.5 mph WSW7.2 kmh WSW 15.9 mph25.6 kmh 30.07 in1018.3 mb 0.00 in0.0 mm 0.00 in0.0 mm 0.02 in0.5 mm
02:05 PM 54.9°F12.7°C 35.0°F1.7°C 47% 6.9 mph SW11.1 kmh SW 13.0 mph20.9 kmh 30.07 in1018.3 mb 0.00 in0.0 mm 0.00 in0.0 mm 0.02 in0.5 mm
02:10 PM 54.3°F12.4°C 34.5°F1.4°C 47% 6.0 mph WSW9.7 kmh WSW 10.7 mph17.2 kmh 30.07 in1018.3 mb 0.00 in0.0 mm 0.00 in0.0 mm 0.02 in0.5 mm
02:15 PM 54.3°F12.4°C 34.0°F1.1°C 46% 7.6 mph W12.2 kmh W 10.7 mph17.2 kmh 30.07 in1018.3 mb 0.00 in0.0 mm 0.00 in0.0 mm 0.02 in0.5 mm
02:20 PM 54.3°F12.4°C 34.5°F1.4°C 47% 5.4 mph W8.7 kmh W 10.7 mph17.2 kmh 30.07 in1018.3 mb 0.00 in0.0 mm 0.00 in0.0 mm 0.02 in0.5 mm
02:25 PM 54.7°F12.6°C 35.4°F1.9°C 48% 4.5 mph WSW7.2 kmh WSW 10.7 mph17.2 kmh 30.07 in1018.3 mb 0.00 in0.0 mm 0.00 in0.0 mm 0.02 in0.5 mm
02:30 PM 54.7°F12.6°C 35.9°F2.2°C 49% 4.5 mph W7.2 kmh W 14.5 mph23.3 kmh 30.07 in1018.3 mb 0.00 in0.0 mm 0.00 in0.0 mm 0.02 in0.5 mm
02:35 PM 54.5°F12.5°C 35.7°F2.1°C 49% 6.9 mph WNW11.1 kmh WNW 14.5 mph23.3 kmh 30.07 in1018.3 mb 0.00 in0.0 mm 0.00 in0.0 mm 0.02 in0.5 mm
02:40 PM 54.3°F12.4°C 35.1°F1.7°C 48% 4.5 mph W7.2 kmh W 13.6 mph21.9 kmh 30.07 in1018.3 mb 0.00 in0.0 mm 0.00 in0.0 mm 0.02 in0.5 mm
02:45 PM 54.0°F12.2°C 34.7°F1.5°C 48% 9.8 mph W15.8 kmh W 14.5 mph23.3 kmh 30.06 in1017.9 mb 0.00 in0.0 mm 0.00 in0.0 mm 0.02 in0.5 mm
02:50 PM 54.0°F12.2°C 36.3°F2.4°C 51% 6.9 mph W11.1 kmh W 15.2 mph24.5 kmh 30.07 in1018.3 mb 0.00 in0.0 mm 0.00 in0.0 mm 0.02 in0.5 mm
02:55 PM 54.1°F12.3°C 36.4°F2.4°C 51% 7.6 mph WNW12.2 kmh WNW 15.2 mph24.5 kmh 30.06 in1017.9 mb 0.00 in0.0 mm 0.00 in0.0 mm 0.02 in0.5 mm
03:00 PM 54.3°F12.4°C 36.6°F2.6°C 51% 10.7 mph W17.2 kmh W 15.2 mph24.5 kmh 30.07 in1018.3 mb 0.00 in0.0 mm 0.00 in0.0 mm 0.02 in0.5 mm
03:05 PM 54.1°F12.3°C 36.4°F2.4°C 51% 6.9 mph W11.1 kmh W 15.2 mph24.5 kmh 30.06 in1017.9 mb 0.00 in0.0 mm 0.00 in0.0 mm 0.02 in0.5 mm
03:10 PM 54.1°F12.3°C 36.4°F2.4°C 51% 6.9 mph NW11.1 kmh NW 15.2 mph24.5 kmh 30.06 in1017.9 mb 0.00 in0.0 mm 0.00 in0.0 mm 0.02 in0.5 mm
03:15 PM 54.0°F12.2°C 36.3°F2.4°C 51% 7.6 mph NW12.2 kmh NW 12.1 mph19.5 kmh 30.05 in1017.6 mb 0.00 in0.0 mm 0.00 in0.0 mm 0.02 in0.5 mm
03:20 PM 53.8°F12.1°C 36.1°F2.3°C 51% 4.5 mph NW7.2 kmh NW 9.8 mph15.8 kmh 30.06 in1017.9 mb 0.00 in0.0 mm 0.00 in0.0 mm 0.02 in0.5 mm
03:25 PM 54.0°F12.2°C 36.3°F2.4°C 51% 6.9 mph WNW11.1 kmh WNW 9.8 mph15.8 kmh 30.06 in1017.9 mb 0.00 in0.0 mm 0.00 in0.0 mm 0.02 in0.5 mm
03:30 PM 54.0°F12.2°C 36.3°F2.4°C 51% 5.4 mph W8.7 kmh W 8.3 mph13.4 kmh 30.05 in1017.6 mb 0.00 in0.0 mm 0.00 in0.0 mm 0.02 in0.5 mm
03:35 PM 54.0°F12.2°C 36.7°F2.6°C 52% 5.4 mph WSW8.7 kmh WSW 9.2 mph14.8 kmh 30.05 in1017.6 mb 0.00 in0.0 mm 0.00 in0.0 mm 0.02 in0.5 mm
03:40 PM 54.0°F12.2°C 36.7°F2.6°C 52% 9.8 mph W15.8 kmh W 11.4 mph18.3 kmh 30.05 in1017.6 mb 0.00 in0.0 mm 0.00 in0.0 mm 0.02 in0.5 mm
03:45 PM 54.1°F12.3°C 36.9°F2.7°C 52% 7.6 mph W12.2 kmh W 11.4 mph18.3 kmh 30.05 in1017.6 mb 0.00 in0.0 mm 0.00 in0.0 mm 0.02 in0.5 mm
03:50 PM 54.5°F12.5°C 38.7°F3.7°C 55% 9.2 mph WNW14.8 kmh WNW 14.5 mph23.3 kmh 30.05 in1017.6 mb 0.00 in0.0 mm 0.00 in0.0 mm 0.02 in0.5 mm
03:55 PM 54.7°F12.6°C 37.9°F3.3°C 53% 11.4 mph WNW18.3 kmh WNW 16.8 mph27.0 kmh 30.04 in1017.3 mb 0.00 in0.0 mm 0.00 in0.0 mm 0.02 in0.5 mm
04:00 PM 54.9°F12.7°C 37.6°F3.1°C 52% 8.3 mph WNW13.4 kmh WNW 16.8 mph27.0 kmh 30.04 in1017.3 mb 0.00 in0.0 mm 0.00 in0.0 mm 0.02 in0.5 mm
04:05 PM 55.0°F12.8°C 37.7°F3.2°C 52% 5.4 mph WNW8.7 kmh WNW 16.8 mph27.0 kmh 30.05 in1017.6 mb 0.00 in0.0 mm 0.00 in0.0 mm 0.02 in0.5 mm
04:10 PM 55.4°F13.0°C 37.6°F3.1°C 51% 10.7 mph W17.2 kmh W 14.5 mph23.3 kmh 30.04 in1017.3 mb 0.00 in0.0 mm 0.00 in0.0 mm 0.02 in0.5 mm
04:15 PM 55.2°F12.9°C 37.4°F3.0°C 51% 8.3 mph W13.4 kmh W 14.5 mph23.3 kmh 30.05 in1017.6 mb 0.00 in0.0 mm 0.00 in0.0 mm 0.02 in0.5 mm
04:20 PM 55.0°F12.8°C 37.3°F2.9°C 51% 5.4 mph W8.7 kmh W 14.5 mph23.3 kmh 30.04 in1017.3 mb 0.00 in0.0 mm 0.00 in0.0 mm 0.02 in0.5 mm
04:25 PM 55.0°F12.8°C 37.7°F3.2°C 52% 7.6 mph WNW12.2 kmh WNW 14.5 mph23.3 kmh 30.04 in1017.3 mb 0.00 in0.0 mm 0.00 in0.0 mm 0.02 in0.5 mm
04:30 PM 54.9°F12.7°C 37.6°F3.1°C 52% 7.6 mph NW12.2 kmh NW 12.1 mph19.5 kmh 30.05 in1017.6 mb 0.00 in0.0 mm 0.00 in0.0 mm 0.02 in0.5 mm
04:35 PM 54.7°F12.6°C 37.4°F3.0°C 52% 9.2 mph NW14.8 kmh NW 12.1 mph19.5 kmh 30.04 in1017.3 mb 0.00 in0.0 mm 0.00 in0.0 mm 0.02 in0.5 mm
04:40 PM 54.5°F12.5°C 37.7°F3.2°C 53% 7.6 mph NW12.2 kmh NW 12.1 mph19.5 kmh 30.05 in1017.6 mb 0.00 in0.0 mm 0.00 in0.0 mm 0.02 in0.5 mm
04:45 PM 54.3°F12.4°C 37.6°F3.1°C 53% 7.6 mph NW12.2 kmh NW 12.1 mph19.5 kmh 30.05 in1017.6 mb 0.00 in0.0 mm 0.00 in0.0 mm 0.02 in0.5 mm
04:50 PM 54.3°F12.4°C 37.6°F3.1°C 53% 6.0 mph NW9.7 kmh NW 12.1 mph19.5 kmh 30.04 in1017.3 mb 0.00 in0.0 mm 0.00 in0.0 mm 0.02 in0.5 mm
04:55 PM 54.1°F12.3°C 36.9°F2.7°C 52% 4.5 mph NW7.2 kmh NW 13.0 mph20.9 kmh 30.04 in1017.3 mb 0.00 in0.0 mm 0.00 in0.0 mm 0.02 in0.5 mm
05:00 PM 54.1°F12.3°C 36.9°F2.7°C 52% 6.9 mph NW11.1 kmh NW 13.0 mph20.9 kmh 30.05 in1017.6 mb 0.00 in0.0 mm 0.00 in0.0 mm 0.02 in0.5 mm
05:05 PM 54.0°F12.2°C 36.7°F2.6°C 52% 3.8 mph NW6.1 kmh NW 13.0 mph20.9 kmh 30.05 in1017.6 mb 0.00 in0.0 mm 0.00 in0.0 mm 0.02 in0.5 mm
05:10 PM 54.0°F12.2°C 36.3°F2.4°C 51% 7.6 mph NW12.2 kmh NW 12.1 mph19.5 kmh 30.05 in1017.6 mb 0.00 in0.0 mm 0.00 in0.0 mm 0.02 in0.5 mm
05:15 PM 54.0°F12.2°C 36.3°F2.4°C 51% 6.0 mph WNW9.7 kmh WNW 13.0 mph20.9 kmh 30.04 in1017.3 mb 0.00 in0.0 mm 0.00 in0.0 mm 0.02 in0.5 mm
05:20 PM 53.8°F12.1°C 35.6°F2.0°C 50% 6.0 mph NW9.7 kmh NW 13.6 mph21.9 kmh 30.04 in1017.3 mb 0.00 in0.0 mm 0.00 in0.0 mm 0.02 in0.5 mm
05:25 PM 53.8°F12.1°C 35.6°F2.0°C 50% 9.2 mph NW14.8 kmh NW 14.5 mph23.3 kmh 30.05 in1017.6 mb 0.00 in0.0 mm 0.00 in0.0 mm 0.02 in0.5 mm
05:30 PM 53.6°F12.0°C 34.4°F1.3°C 48% 9.2 mph NW14.8 kmh NW 15.2 mph24.5 kmh 30.05 in1017.6 mb 0.00 in0.0 mm 0.00 in0.0 mm 0.02 in0.5 mm
05:35 PM 53.4°F11.9°C 35.3°F1.8°C 50% 6.0 mph WNW9.7 kmh WNW 15.2 mph24.5 kmh 30.04 in1017.3 mb 0.00 in0.0 mm 0.00 in0.0 mm 0.02 in0.5 mm
05:40 PM 53.4°F11.9°C 35.3°F1.8°C 50% 6.9 mph WNW11.1 kmh WNW 13.0 mph20.9 kmh 30.04 in1017.3 mb 0.00 in0.0 mm 0.00 in0.0 mm 0.02 in0.5 mm
05:45 PM 53.2°F11.8°C 35.1°F1.7°C 50% 6.0 mph WNW9.7 kmh WNW 12.1 mph19.5 kmh 30.04 in1017.3 mb 0.00 in0.0 mm 0.00 in0.0 mm 0.02 in0.5 mm
05:50 PM 53.2°F11.8°C 35.6°F2.0°C 51% 4.5 mph NW7.2 kmh NW 11.4 mph18.3 kmh 30.04 in1017.3 mb 0.00 in0.0 mm 0.00 in0.0 mm 0.02 in0.5 mm
05:55 PM 53.1°F11.7°C 34.9°F1.6°C 50% 4.5 mph NW7.2 kmh NW 13.6 mph21.9 kmh 30.04 in1017.3 mb 0.00 in0.0 mm 0.00 in0.0 mm 0.02 in0.5 mm
06:00 PM 52.9°F11.6°C 35.3°F1.8°C 51% 7.6 mph NW12.2 kmh NW 13.6 mph21.9 kmh 30.04 in1017.3 mb 0.00 in0.0 mm 0.00 in0.0 mm 0.02 in0.5 mm
06:05 PM 52.9°F11.6°C 35.3°F1.8°C 51% 5.4 mph WNW8.7 kmh WNW 12.1 mph19.5 kmh 30.04 in1017.3 mb 0.00 in0.0 mm 0.00 in0.0 mm 0.02 in0.5 mm
06:10 PM 52.7°F11.5°C 35.6°F2.0°C 52% 6.9 mph W11.1 kmh W 12.1 mph19.5 kmh 30.04 in1017.3 mb 0.00 in0.0 mm 0.00 in0.0 mm 0.02 in0.5 mm
06:15 PM 52.5°F11.4°C 35.4°F1.9°C 52% 5.4 mph WNW8.7 kmh WNW 12.1 mph19.5 kmh 30.04 in1017.3 mb 0.00 in0.0 mm 0.00 in0.0 mm 0.02 in0.5 mm
06:20 PM 52.5°F11.4°C 35.4°F1.9°C 52% 6.9 mph WNW11.1 kmh WNW 13.0 mph20.9 kmh 30.03 in1016.9 mb 0.00 in0.0 mm 0.00 in0.0 mm 0.02 in0.5 mm
06:25 PM 52.3°F11.3°C 35.2°F1.8°C 52% 6.0 mph WNW9.7 kmh WNW 13.0 mph20.9 kmh 30.04 in1017.3 mb 0.00 in0.0 mm 0.00 in0.0 mm 0.02 in0.5 mm
06:30 PM 52.3°F11.3°C 35.2°F1.8°C 52% 6.9 mph W11.1 kmh W 10.7 mph17.2 kmh 30.04 in1017.3 mb 0.00 in0.0 mm 0.00 in0.0 mm 0.02 in0.5 mm
06:35 PM 52.3°F11.3°C 35.2°F1.8°C 52% 1.6 mph W2.6 kmh W 10.7 mph17.2 kmh 30.04 in1017.3 mb 0.00 in0.0 mm 0.00 in0.0 mm 0.02 in0.5 mm
06:40 PM 52.2°F11.2°C 35.1°F1.7°C 52% 3.8 mph W6.1 kmh W 9.8 mph15.8 kmh 30.04 in1017.3 mb 0.00 in0.0 mm 0.00 in0.0 mm 0.02 in0.5 mm
06:45 PM 52.2°F11.2°C 35.1°F1.7°C 52% 3.8 mph WNW6.1 kmh WNW 9.2 mph14.8 kmh 30.04 in1017.3 mb 0.00 in0.0 mm 0.00 in0.0 mm 0.02 in0.5 mm
06:50 PM 52.0°F11.1°C 34.9°F1.6°C 52% 3.8 mph WNW6.1 kmh WNW 6.9 mph11.1 kmh 30.04 in1017.3 mb 0.00 in0.0 mm 0.00 in0.0 mm 0.02 in0.5 mm
06:55 PM 52.0°F11.1°C 35.4°F1.9°C 53% 2.2 mph W3.5 kmh W 6.0 mph9.7 kmh 30.04 in1017.3 mb 0.00 in0.0 mm 0.00 in0.0 mm 0.02 in0.5 mm
07:00 PM 51.8°F11.0°C 35.2°F1.8°C 53% 3.1 mph WNW5.0 kmh WNW 5.4 mph8.7 kmh 30.04 in1017.3 mb 0.00 in0.0 mm 0.00 in0.0 mm 0.02 in0.5 mm
07:05 PM 51.8°F11.0°C 35.2°F1.8°C 53% 3.1 mph W5.0 kmh W 6.0 mph9.7 kmh 30.04 in1017.3 mb 0.00 in0.0 mm 0.00 in0.0 mm 0.02 in0.5 mm
07:10 PM 51.6°F10.9°C 35.5°F1.9°C 54% 3.1 mph W5.0 kmh W 6.0 mph9.7 kmh 30.04 in1017.3 mb 0.00 in0.0 mm 0.00 in0.0 mm 0.02 in0.5 mm
07:15 PM 51.6°F10.9°C 35.5°F1.9°C 54% 2.2 mph W3.5 kmh W 6.0 mph9.7 kmh 30.04 in1017.3 mb 0.00 in0.0 mm 0.00 in0.0 mm 0.02 in0.5 mm
07:20 PM 51.4°F10.8°C 35.8°F2.1°C 55% 0.7 mph W1.1 kmh W 6.0 mph9.7 kmh 30.04 in1017.3 mb 0.00 in0.0 mm 0.00 in0.0 mm 0.02 in0.5 mm
07:25 PM 51.3°F10.7°C 35.7°F2.1°C 55% 0.7 mph W1.1 kmh W 3.1 mph5.0 kmh 30.05 in1017.6 mb 0.00 in0.0 mm 0.00 in0.0 mm 0.02 in0.5 mm
07:30 PM 51.3°F10.7°C 35.7°F2.1°C 55% Calm Calm 3.1 mph5.0 kmh 30.05 in1017.6 mb 0.00 in0.0 mm 0.00 in0.0 mm 0.02 in0.5 mm
07:35 PM 51.1°F10.6°C 35.5°F1.9°C 55% 1.6 mph WSW2.6 kmh WSW 2.2 mph3.5 kmh 30.05 in1017.6 mb 0.00 in0.0 mm 0.00 in0.0 mm 0.02 in0.5 mm
07:40 PM 51.1°F10.6°C 35.9°F2.2°C 56% 1.6 mph SW2.6 kmh SW 3.1 mph5.0 kmh 30.05 in1017.6 mb 0.00 in0.0 mm 0.00 in0.0 mm 0.02 in0.5 mm
07:45 PM 51.1°F10.6°C 35.9°F2.2°C 56% 1.6 mph SW2.6 kmh SW 3.1 mph5.0 kmh 30.05 in1017.6 mb 0.00 in0.0 mm 0.00 in0.0 mm 0.02 in0.5 mm
07:50 PM 51.1°F10.6°C 35.9°F2.2°C 56% 0.7 mph SSW1.1 kmh SSW 3.1 mph5.0 kmh 30.04 in1017.3 mb 0.00 in0.0 mm 0.00 in0.0 mm 0.02 in0.5 mm
07:55 PM 51.1°F10.6°C 35.9°F2.2°C 56% 0.7 mph SSW1.1 kmh SSW 3.1 mph5.0 kmh 30.04 in1017.3 mb 0.00 in0.0 mm 0.00 in0.0 mm 0.02 in0.5 mm
08:00 PM 51.1°F10.6°C 36.4°F2.4°C 57% 0.7 mph SSW1.1 kmh SSW 3.1 mph5.0 kmh 30.04 in1017.3 mb 0.00 in0.0 mm 0.00 in0.0 mm 0.02 in0.5 mm
08:05 PM 50.9°F10.5°C 36.2°F2.3°C 57% Calm Calm 3.1 mph5.0 kmh 30.04 in1017.3 mb 0.00 in0.0 mm 0.00 in0.0 mm 0.02 in0.5 mm
08:10 PM 50.9°F10.5°C 36.2°F2.3°C 57% 1.6 mph SW2.6 kmh SW 3.1 mph5.0 kmh 30.05 in1017.6 mb 0.00 in0.0 mm 0.00 in0.0 mm 0.02 in0.5 mm
08:15 PM 50.9°F10.5°C 36.2°F2.3°C 57% Calm Calm 3.1 mph5.0 kmh 30.05 in1017.6 mb 0.00 in0.0 mm 0.00 in0.0 mm 0.02 in0.5 mm
08:20 PM 50.9°F10.5°C 36.2°F2.3°C 57% 0.7 mph W1.1 kmh W 3.1 mph5.0 kmh 30.05 in1017.6 mb 0.00 in0.0 mm 0.00 in0.0 mm 0.02 in0.5 mm
08:25 PM 50.7°F10.4°C 36.5°F2.5°C 58% 0.7 mph W1.1 kmh W 2.2 mph3.5 kmh 30.05 in1017.6 mb 0.00 in0.0 mm 0.00 in0.0 mm 0.02 in0.5 mm
08:30 PM 50.5°F10.3°C 36.8°F2.7°C 59% Calm Calm 2.2 mph3.5 kmh 30.05 in1017.6 mb 0.00 in0.0 mm 0.00 in0.0 mm 0.02 in0.5 mm
08:35 PM 50.4°F10.2°C 36.6°F2.6°C 59% 1.6 mph WNW2.6 kmh WNW 2.2 mph3.5 kmh 30.05 in1017.6 mb 0.00 in0.0 mm 0.00 in0.0 mm 0.02 in0.5 mm
08:40 PM 50.2°F10.1°C 36.4°F2.4°C 59% 0.7 mph NW1.1 kmh NW 3.1 mph5.0 kmh 30.05 in1017.6 mb 0.00 in0.0 mm 0.00 in0.0 mm 0.02 in0.5 mm
08:45 PM 50.2°F10.1°C 36.4°F2.4°C 59% 1.6 mph WNW2.6 kmh WNW 3.1 mph5.0 kmh 30.05 in1017.6 mb 0.00 in0.0 mm 0.00 in0.0 mm 0.02 in0.5 mm
08:50 PM 50.2°F10.1°C 36.4°F2.4°C 59% 1.6 mph WSW2.6 kmh WSW 3.1 mph5.0 kmh 30.05 in1017.6 mb 0.00 in0.0 mm 0.00 in0.0 mm 0.02 in0.5 mm
08:55 PM 50.2°F10.1°C 36.4°F2.4°C 59% Calm Calm 3.1 mph5.0 kmh 30.05 in1017.6 mb 0.00 in0.0 mm 0.00 in0.0 mm 0.02 in0.5 mm
09:00 PM 50.2°F10.1°C 36.4°F2.4°C 59% 0.7 mph SW1.1 kmh SW 2.2 mph3.5 kmh 30.05 in1017.6 mb 0.00 in0.0 mm 0.00 in0.0 mm 0.02 in0.5 mm
09:05 PM 50.2°F10.1°C 36.4°F2.4°C 59% 0.7 mph SW1.1 kmh SW 2.2 mph3.5 kmh 30.05 in1017.6 mb 0.00 in0.0 mm 0.00 in0.0 mm 0.02 in0.5 mm
09:10 PM 50.2°F10.1°C 36.4°F2.4°C 59% 1.6 mph WSW2.6 kmh WSW 2.2 mph3.5 kmh 30.05 in1017.6 mb 0.00 in0.0 mm 0.00 in0.0 mm 0.02 in0.5 mm
09:15 PM 50.2°F10.1°C 36.8°F2.7°C 60% 0.7 mph W1.1 kmh W 3.1 mph5.0 kmh 30.05 in1017.6 mb 0.00 in0.0 mm 0.00 in0.0 mm 0.02 in0.5 mm
09:20 PM 50.2°F10.1°C 36.8°F2.7°C 60% 0.7 mph W1.1 kmh W 3.1 mph5.0 kmh 30.04 in1017.3 mb 0.00 in0.0 mm 0.00 in0.0 mm 0.02 in0.5 mm
09:25 PM 50.0°F10.0°C 37.1°F2.8°C 61% 0.7 mph W1.1 kmh W 2.2 mph3.5 kmh 30.04 in1017.3 mb 0.00 in0.0 mm 0.00 in0.0 mm 0.02 in0.5 mm
09:30 PM 50.0°F10.0°C 37.1°F2.8°C 61% 0.7 mph W1.1 kmh W 2.2 mph3.5 kmh 30.04 in1017.3 mb 0.00 in0.0 mm 0.00 in0.0 mm 0.02 in0.5 mm
09:35 PM 49.8°F9.9°C 38.1°F3.4°C 64% 0.7 mph W1.1 kmh W 1.6 mph2.6 kmh 30.05 in1017.6 mb 0.00 in0.0 mm 0.00 in0.0 mm 0.02 in0.5 mm
09:40 PM 49.6°F9.8°C 38.0°F3.3°C 64% 0.7 mph WSW1.1 kmh WSW 1.6 mph2.6 kmh 30.04 in1017.3 mb 0.00 in0.0 mm 0.00 in0.0 mm 0.02 in0.5 mm
09:45 PM 49.6°F9.8°C 38.0°F3.3°C 64% Calm Calm 1.6 mph2.6 kmh 30.04 in1017.3 mb 0.00 in0.0 mm 0.00 in0.0 mm 0.02 in0.5 mm
09:50 PM 49.5°F9.7°C 37.8°F3.2°C 64% 0.7 mph NW1.1 kmh NW 1.6 mph2.6 kmh 30.05 in1017.6 mb 0.00 in0.0 mm 0.00 in0.0 mm 0.02 in0.5 mm
09:55 PM 49.3°F9.6°C 38.0°F3.3°C 65% Calm Calm 1.6 mph2.6 kmh 30.04 in1017.3 mb 0.00 in0.0 mm 0.00 in0.0 mm 0.02 in0.5 mm
10:00 PM 49.1°F9.5°C 37.9°F3.3°C 65% 0.7 mph NW1.1 kmh NW 2.2 mph3.5 kmh 30.05 in1017.6 mb 0.00 in0.0 mm 0.00 in0.0 mm 0.02 in0.5 mm
10:05 PM 49.1°F9.5°C 37.9°F3.3°C 65% 0.7 mph WNW1.1 kmh WNW 2.2 mph3.5 kmh 30.05 in1017.6 mb 0.00 in0.0 mm 0.00 in0.0 mm 0.02 in0.5 mm
10:10 PM 48.9°F9.4°C 37.7°F3.2°C 65% 0.7 mph W1.1 kmh W 1.6 mph2.6 kmh 30.05 in1017.6 mb 0.00 in0.0 mm 0.00 in0.0 mm 0.02 in0.5 mm
10:15 PM 49.1°F9.5°C 37.5°F3.1°C 64% 0.7 mph WSW1.1 kmh WSW 1.6 mph2.6 kmh 30.06 in1017.9 mb 0.00 in0.0 mm 0.00 in0.0 mm 0.02 in0.5 mm
10:20 PM 49.1°F9.5°C 37.9°F3.3°C 65% 0.7 mph WSW1.1 kmh WSW 1.6 mph2.6 kmh 30.05 in1017.6 mb 0.00 in0.0 mm 0.00 in0.0 mm 0.02 in0.5 mm
10:25 PM 48.9°F9.4°C 38.1°F3.4°C 66% 0.7 mph WNW1.1 kmh WNW 1.6 mph2.6 kmh 30.05 in1017.6 mb 0.00 in0.0 mm 0.00 in0.0 mm 0.02 in0.5 mm
10:30 PM 48.9°F9.4°C 38.1°F3.4°C 66% 0.7 mph NW1.1 kmh NW 2.2 mph3.5 kmh 30.06 in1017.9 mb 0.00 in0.0 mm 0.00 in0.0 mm 0.02 in0.5 mm
10:35 PM 48.7°F9.3°C 37.9°F3.3°C 66% Calm Calm 3.1 mph5.0 kmh 30.06 in1017.9 mb 0.00 in0.0 mm 0.00 in0.0 mm 0.02 in0.5 mm
10:40 PM 48.6°F9.2°C 38.1°F3.4°C 67% Calm Calm 3.1 mph5.0 kmh 30.06 in1017.9 mb 0.00 in0.0 mm 0.00 in0.0 mm 0.02 in0.5 mm
10:45 PM 48.6°F9.2°C 38.1°F3.4°C 67% 0.7 mph NW1.1 kmh NW 2.2 mph3.5 kmh 30.05 in1017.6 mb 0.00 in0.0 mm 0.00 in0.0 mm 0.02 in0.5 mm
10:50 PM 48.4°F9.1°C 38.3°F3.5°C 68% 1.6 mph NW2.6 kmh NW 2.2 mph3.5 kmh 30.06 in1017.9 mb 0.00 in0.0 mm 0.00 in0.0 mm 0.02 in0.5 mm
10:55 PM 48.4°F9.1°C 38.3°F3.5°C 68% 1.6 mph NW2.6 kmh NW 4.5 mph7.2 kmh 30.05 in1017.6 mb 0.00 in0.0 mm 0.00 in0.0 mm 0.02 in0.5 mm
11:00 PM 48.2°F9.0°C 38.1°F3.4°C 68% 2.2 mph NW3.5 kmh NW 4.5 mph7.2 kmh 30.05 in1017.6 mb 0.00 in0.0 mm 0.00 in0.0 mm 0.02 in0.5 mm
11:05 PM 48.2°F9.0°C 38.5°F3.6°C 69% 1.6 mph NW2.6 kmh NW 3.8 mph6.1 kmh 30.06 in1017.9 mb 0.00 in0.0 mm 0.00 in0.0 mm 0.02 in0.5 mm
11:10 PM 48.2°F9.0°C 38.5°F3.6°C 69% 3.1 mph NW5.0 kmh NW 3.8 mph6.1 kmh 30.06 in1017.9 mb 0.00 in0.0 mm 0.00 in0.0 mm 0.02 in0.5 mm
11:15 PM 48.2°F9.0°C 38.9°F3.8°C 70% 1.6 mph NW2.6 kmh NW 4.5 mph7.2 kmh 30.06 in1017.9 mb 0.00 in0.0 mm 0.00 in0.0 mm 0.02 in0.5 mm
11:20 PM 48.0°F8.9°C 39.1°F3.9°C 71% 1.6 mph NW2.6 kmh NW 4.5 mph7.2 kmh 30.06 in1017.9 mb 0.00 in0.0 mm 0.00 in0.0 mm 0.02 in0.5 mm
11:25 PM 48.0°F8.9°C 39.4°F4.1°C 72% 2.2 mph NW3.5 kmh NW 3.8 mph6.1 kmh 30.06 in1017.9 mb 0.00 in0.0 mm 0.00 in0.0 mm 0.02 in0.5 mm
11:30 PM 47.8°F8.8°C 40.0°F4.4°C 74% 2.2 mph NNW3.5 kmh NNW 3.8 mph6.1 kmh 30.06 in1017.9 mb 0.00 in0.0 mm 0.00 in0.0 mm 0.02 in0.5 mm
11:35 PM 47.7°F8.7°C 40.1°F4.5°C 75% 0.7 mph NW1.1 kmh NW 3.8 mph6.1 kmh 30.05 in1017.6 mb 0.00 in0.0 mm 0.00 in0.0 mm 0.02 in0.5 mm
11:40 PM 47.7°F8.7°C 40.1°F4.5°C 75% 1.6 mph NW2.6 kmh NW 3.8 mph6.1 kmh 30.06 in1017.9 mb 0.00 in0.0 mm 0.00 in0.0 mm 0.02 in0.5 mm
11:45 PM 47.5°F8.6°C 40.0°F4.4°C 75% 0.7 mph NW1.1 kmh NW 3.1 mph5.0 kmh 30.05 in1017.6 mb 0.00 in0.0 mm 0.00 in0.0 mm 0.02 in0.5 mm
11:50 PM 47.5°F8.6°C 40.3°F4.6°C 76% 1.6 mph N2.6 kmh N 3.1 mph5.0 kmh 30.05 in1017.6 mb 0.00 in0.0 mm 0.00 in0.0 mm 0.02 in0.5 mm
11:55 PM 47.5°F8.6°C 40.3°F4.6°C 76% 1.6 mph NNE2.6 kmh NNE 3.1 mph5.0 kmh 30.05 in1017.6 mb 0.00 in0.0 mm 0.00 in0.0 mm 0.02 in0.5 mm